Time;durP1;ratioP1;P1;durP2;ratioP2;P2;SDS_P1;SDS_P2;PMS_P1;PMS_P2;Temp;Humidity;BMP_temperature;BMP_pressure;BME280_temperature;BME280_humidity;BME280_pressure;Samples;Min_cycle;Max_cycle;Signal;HPM_P1;HPM_P2
2023/09/29 00:00:18;;;;;;;20.42;8.80;;;;;;;;;;7390523;19;20354;-67
2023/09/29 00:02:45;;;;;;;14.55;7.30;;;;;;;;;;7367972;19;20007;-68
2023/09/29 00:05:11;;;;;;;17.00;8.05;;;;;;;;;;7364639;19;20006;-65
2023/09/29 00:07:39;;;;;;;12.85;7.10;;;;;;;;;;7369151;19;20018;-68
2023/09/29 00:10:09;;;;;;;13.13;7.25;;;;;;;;;;7369623;19;20013;-67
2023/09/29 00:12:36;;;;;;;16.27;7.55;;;;;;;;;;7368136;19;20010;-68
2023/09/29 00:15:04;;;;;;;18.60;7.78;;;;;;;;;;7390551;19;20525;-67
2023/09/29 00:17:30;;;;;;;12.57;7.45;;;;;;;;;;7368617;19;20117;-68
2023/09/29 00:19:55;;;;;;;12.57;7.00;;;;;;;;;;7369730;19;20023;-67
2023/09/29 00:22:20;;;;;;;19.02;7.25;;;;;;;;;;7373088;19;20021;-67
2023/09/29 00:24:46;;;;;;;12.52;6.65;;;;;;;;;;7372904;19;19995;-66
2023/09/29 00:27:11;;;;;;;13.88;6.85;;;;;;;;;;7390363;19;20002;-67
2023/09/29 00:29:38;;;;;;;15.35;7.30;;;;;;;;;;7368080;19;20014;-68
2023/09/29 00:32:03;;;;;;;12.82;6.93;;;;;;;;;;7367279;19;20009;-68
2023/09/29 00:34:28;;;;;;;13.65;6.30;;;;;;;;;;7368093;19;20002;-67
2023/09/29 00:36:54;;;;;;;11.75;6.70;;;;;;;;;;7368720;19;20482;-67
2023/09/29 00:39:19;;;;;;;12.65;6.85;;;;;;;;;;7390189;19;20003;-67
2023/09/29 00:41:45;;;;;;;13.52;6.60;;;;;;;;;;7367342;19;20011;-67
2023/09/29 00:44:11;;;;;;;13.27;6.53;;;;;;;;;;7367245;19;20084;-68
2023/09/29 00:46:36;;;;;;;12.52;6.47;;;;;;;;;;7367556;19;20042;-68
2023/09/29 00:49:04;;;;;;;13.32;6.78;;;;;;;;;;7368373;19;20021;-68
2023/09/29 00:51:30;;;;;;;11.40;6.53;;;;;;;;;;7388658;19;20006;-67
2023/09/29 00:53:57;;;;;;;13.45;6.57;;;;;;;;;;7366978;19;20003;-67
2023/09/29 00:56:23;;;;;;;12.10;6.53;;;;;;;;;;7366695;19;20080;-68
2023/09/29 00:58:48;;;;;;;16.23;7.18;;;;;;;;;;7367340;19;20007;-66
2023/09/29 01:01:14;;;;;;;10.00;5.95;;;;;;;;;;7366782;19;20074;-66
2023/09/29 01:03:39;;;;;;;9.98;6.20;;;;;;;;;;7365880;19;20368;-66
2023/09/29 01:06:08;;;;;;;14.02;6.35;;;;;;;;;;7387254;19;20002;-68
2023/09/29 01:08:33;;;;;;;13.77;6.50;;;;;;;;;;7366339;19;20006;-66
2023/09/29 01:10:59;;;;;;;15.32;7.28;;;;;;;;;;7367244;19;20040;-68
2023/09/29 01:13:24;;;;;;;14.85;7.03;;;;;;;;;;7365566;19;20021;-68
2023/09/29 01:15:50;;;;;;;12.23;6.45;;;;;;;;;;7366641;19;20004;-67
2023/09/29 01:18:16;;;;;;;12.30;6.90;;;;;;;;;;7387708;19;20595;-67
2023/09/29 01:20:41;;;;;;;13.10;7.05;;;;;;;;;;7370959;19;19999;-66
2023/09/29 01:23:07;;;;;;;14.43;6.82;;;;;;;;;;7372572;19;20012;-67
2023/09/29 01:25:36;;;;;;;13.27;6.45;;;;;;;;;;7371447;19;20014;-67
2023/09/29 01:28:07;;;;;;;11.23;6.78;;;;;;;;;;7367574;19;20014;-68
2023/09/29 01:30:34;;;;;;;14.63;7.10;;;;;;;;;;7371307;19;19999;-67
2023/09/29 01:32:59;;;;;;;11.85;7.03;;;;;;;;;;7382989;19;20045;-68
2023/09/29 01:35:25;;;;;;;13.00;6.30;;;;;;;;;;7364175;19;20045;-66
2023/09/29 01:37:53;;;;;;;14.30;6.20;;;;;;;;;;7364475;19;20500;-67
2023/09/29 01:40:22;;;;;;;10.52;6.43;;;;;;;;;;7362701;19;20007;-66
2023/09/29 01:42:49;;;;;;;10.88;6.53;;;;;;;;;;7362369;19;20118;-66
2023/09/29 01:45:15;;;;;;;14.75;6.70;;;;;;;;;;7385829;19;20033;-67
2023/09/29 01:47:50;;;;;;;11.60;7.07;;;;;;;;;;7363454;19;20010;-67
2023/09/29 01:50:18;;;;;;;11.98;6.85;;;;;;;;;;7369956;19;20011;-67
2023/09/29 01:52:44;;;;;;;11.18;6.72;;;;;;;;;;7368524;19;20574;-67
2023/09/29 01:55:14;;;;;;;9.90;6.32;;;;;;;;;;7365756;19;20015;-67
2023/09/29 01:57:40;;;;;;;10.85;6.78;;;;;;;;;;7365979;19;20017;-67
2023/09/29 02:00:08;;;;;;;11.82;6.68;;;;;;;;;;7387791;19;20011;-68
2023/09/29 02:02:33;;;;;;;11.82;6.80;;;;;;;;;;7366310;19;20504;-67
2023/09/29 02:04:58;;;;;;;11.23;6.65;;;;;;;;;;7370388;19;20007;-67
2023/09/29 02:07:24;;;;;;;10.30;6.82;;;;;;;;;;7368953;19;20013;-66
2023/09/29 02:09:50;;;;;;;10.75;7.18;;;;;;;;;;7380797;19;20015;-66
2023/09/29 02:12:17;;;;;;;11.20;7.05;;;;;;;;;;7408031;19;20023;-67
2023/09/29 02:14:42;;;;;;;10.82;7.20;;;;;;;;;;7375615;19;20002;-67
2023/09/29 02:17:09;;;;;;;10.98;6.90;;;;;;;;;;7363831;19;20007;-67
2023/09/29 02:19:35;;;;;;;12.85;7.47;;;;;;;;;;7373189;19;20006;-67
2023/09/29 02:22:01;;;;;;;9.88;6.40;;;;;;;;;;7371544;19;20003;-67
2023/09/29 02:24:27;;;;;;;11.85;6.78;;;;;;;;;;7392508;19;20003;-67
2023/09/29 02:26:52;;;;;;;12.77;6.60;;;;;;;;;;7372249;19;20013;-66
2023/09/29 02:29:17;;;;;;;12.75;6.47;;;;;;;;;;7372696;19;20006;-67
2023/09/29 02:31:43;;;;;;;10.68;6.60;;;;;;;;;;7372159;19;20002;-69
2023/09/29 02:34:08;;;;;;;11.15;6.55;;;;;;;;;;7372602;19;20014;-68
2023/09/29 02:36:35;;;;;;;10.20;6.05;;;;;;;;;;7371837;19;20003;-67
2023/09/29 02:39:03;;;;;;;10.20;6.28;;;;;;;;;;7393694;19;20089;-66
2023/09/29 02:41:30;;;;;;;11.73;6.78;;;;;;;;;;7371380;19;20002;-67
2023/09/29 02:43:55;;;;;;;13.50;7.30;;;;;;;;;;7373034;19;20002;-67
2023/09/29 02:46:20;;;;;;;13.23;6.68;;;;;;;;;;7372414;19;20014;-67
2023/09/29 02:48:46;;;;;;;12.43;6.20;;;;;;;;;;7371995;19;20003;-67
2023/09/29 02:51:16;;;;;;;11.40;6.82;;;;;;;;;;7393469;19;20485;-67
2023/09/29 02:53:42;;;;;;;13.85;7.25;;;;;;;;;;7369442;19;20433;-67
2023/09/29 02:56:11;;;;;;;15.18;6.78;;;;;;;;;;7371530;19;20015;-66
2023/09/29 02:58:38;;;;;;;11.15;6.75;;;;;;;;;;7372811;19;20027;-66
2023/09/29 03:01:07;;;;;;;9.95;5.95;;;;;;;;;;7371859;19;20006;-67
2023/09/29 03:03:33;;;;;;;9.85;5.88;;;;;;;;;;7369553;19;20003;-67
2023/09/29 03:05:58;;;;;;;9.77;6.57;;;;;;;;;;7393334;19;20024;-67
2023/09/29 03:08:23;;;;;;;10.20;6.18;;;;;;;;;;7371202;19;20106;-67
2023/09/29 03:10:49;;;;;;;11.95;6.43;;;;;;;;;;7370498;19;20466;-67
2023/09/29 03:13:14;;;;;;;10.98;6.40;;;;;;;;;;7369223;19;20054;-67
2023/09/29 03:15:41;;;;;;;12.80;5.53;;;;;;;;;;7371048;19;20002;-67
2023/09/29 03:18:06;;;;;;;11.43;5.80;;;;;;;;;;7395882;19;20017;-67
2023/09/29 03:20:32;;;;;;;11.55;6.15;;;;;;;;;;7374508;19;20010;-66
2023/09/29 03:23:00;;;;;;;14.23;7.20;;;;;;;;;;7371069;19;20026;-69
2023/09/29 03:25:26;;;;;;;12.32;7.05;;;;;;;;;;7368382;19;20006;-67
2023/09/29 03:27:51;;;;;;;16.10;6.45;;;;;;;;;;7370433;19;20000;-68
2023/09/29 03:30:17;;;;;;;12.45;6.78;;;;;;;;;;7391506;19;20003;-67
2023/09/29 03:32:43;;;;;;;9.90;6.35;;;;;;;;;;7367606;19;20059;-66
2023/09/29 03:35:09;;;;;;;12.75;6.70;;;;;;;;;;7369340;19;20098;-68
2023/09/29 03:37:38;;;;;;;11.95;6.55;;;;;;;;;;7369885;19;20066;-67
2023/09/29 03:40:08;;;;;;;11.38;6.50;;;;;;;;;;7370054;19;20039;-68
2023/09/29 03:42:35;;;;;;;13.43;7.10;;;;;;;;;;7369123;19;20027;-68
2023/09/29 03:45:05;;;;;;;12.30;7.10;;;;;;;;;;7391228;19;20012;-67
2023/09/29 03:47:32;;;;;;;11.95;6.65;;;;;;;;;;7369662;19;20074;-66
2023/09/29 03:49:58;;;;;;;10.52;6.53;;;;;;;;;;7371747;19;20011;-67
2023/09/29 03:52:25;;;;;;;12.02;7.38;;;;;;;;;;7370242;19;20378;-67
2023/09/29 03:54:51;;;;;;;12.00;7.15;;;;;;;;;;7370838;19;20067;-66
2023/09/29 03:57:16;;;;;;;11.70;6.43;;;;;;;;;;7393293;19;20010;-68
2023/09/29 03:59:42;;;;;;;11.50;6.68;;;;;;;;;;7371331;19;20066;-67
2023/09/29 04:02:07;;;;;;;13.27;6.43;;;;;;;;;;7365697;19;20018;-66
2023/09/29 04:04:34;;;;;;;10.40;6.35;;;;;;;;;;7367623;19;20010;-66
2023/09/29 04:06:59;;;;;;;13.02;6.35;;;;;;;;;;7367618;19;20027;-67
2023/09/29 04:09:24;;;;;;;11.60;7.40;;;;;;;;;;7391277;19;20002;-67
2023/09/29 04:11:50;;;;;;;14.25;7.60;;;;;;;;;;7368186;19;20038;-66
2023/09/29 04:14:15;;;;;;;15.80;7.60;;;;;;;;;;7369053;19;20006;-67
2023/09/29 04:16:41;;;;;;;12.18;7.05;;;;;;;;;;7368393;19;20010;-67
2023/09/29 04:19:07;;;;;;;14.85;7.75;;;;;;;;;;7370389;19;20013;-66
2023/09/29 04:21:32;;;;;;;15.20;6.75;;;;;;;;;;7368680;19;20035;-67
2023/09/29 04:23:57;;;;;;;10.52;6.43;;;;;;;;;;7389808;19;20011;-69
2023/09/29 04:26:23;;;;;;;9.82;6.22;;;;;;;;;;7368729;19;20002;-68
2023/09/29 04:28:50;;;;;;;10.68;6.63;;;;;;;;;;7369073;19;20495;-67
2023/09/29 04:31:16;;;;;;;9.57;6.03;;;;;;;;;;7368852;19;20042;-68
2023/09/29 04:33:42;;;;;;;11.75;7.22;;;;;;;;;;7366985;19;20081;-66
2023/09/29 04:36:07;;;;;;;10.23;6.72;;;;;;;;;;7390256;19;20021;-66
2023/09/29 04:38:33;;;;;;;17.33;7.32;;;;;;;;;;7367721;19;20006;-66
2023/09/29 04:40:59;;;;;;;13.70;6.78;;;;;;;;;;7367362;19;20022;-66
2023/09/29 04:43:24;;;;;;;11.00;6.95;;;;;;;;;;7367805;19;20027;-67
2023/09/29 04:45:50;;;;;;;11.73;6.57;;;;;;;;;;7371160;19;20032;-66
2023/09/29 04:48:15;;;;;;;11.00;6.93;;;;;;;;;;7392060;19;20011;-68
2023/09/29 04:50:41;;;;;;;15.73;8.27;;;;;;;;;;7367439;19;20010;-67
2023/09/29 04:53:06;;;;;;;12.55;7.93;;;;;;;;;;7363525;19;20011;-67
2023/09/29 04:55:31;;;;;;;11.02;7.88;;;;;;;;;;7364787;19;20006;-67
2023/09/29 04:57:57;;;;;;;14.95;8.10;;;;;;;;;;7365763;19;20652;-67
2023/09/29 05:00:22;;;;;;;13.43;7.65;;;;;;;;;;7387491;19;20023;-68
2023/09/29 05:02:47;;;;;;;14.93;7.20;;;;;;;;;;7364041;19;20014;-67
2023/09/29 05:05:13;;;;;;;13.73;7.15;;;;;;;;;;7368171;19;20014;-67
2023/09/29 05:07:39;;;;;;;12.05;7.38;;;;;;;;;;7368900;19;20010;-68
2023/09/29 05:10:05;;;;;;;10.27;6.70;;;;;;;;;;7368853;19;20006;-68
2023/09/29 05:12:30;;;;;;;12.02;7.70;;;;;;;;;;7389151;19;20014;-67
2023/09/29 05:14:57;;;;;;;12.82;7.38;;;;;;;;;;7373436;19;20015;-67
2023/09/29 05:17:22;;;;;;;11.05;7.07;;;;;;;;;;7367601;19;20014;-67
2023/09/29 05:19:47;;;;;;;11.25;6.68;;;;;;;;;;7368158;19;20021;-63
2023/09/29 05:22:13;;;;;;;12.77;7.13;;;;;;;;;;7368097;19;20472;-65
2023/09/29 05:24:38;;;;;;;10.82;7.25;;;;;;;;;;7356229;19;20005;-65
2023/09/29 05:27:03;;;;;;;11.88;7.10;;;;;;;;;;7388495;19;19999;-64
2023/09/29 05:29:29;;;;;;;16.00;7.65;;;;;;;;;;7367693;19;20093;-65
2023/09/29 05:31:54;;;;;;;11.80;8.38;;;;;;;;;;7367052;19;20027;-65
2023/09/29 05:34:19;;;;;;;10.88;7.28;;;;;;;;;;7364657;19;20014;-66
2023/09/29 05:36:45;;;;;;;13.30;7.57;;;;;;;;;;7365575;19;20977;-64
2023/09/29 05:39:10;;;;;;;10.85;7.28;;;;;;;;;;7389230;19;20375;-63
2023/09/29 05:41:36;;;;;;;11.88;7.80;;;;;;;;;;7364797;19;20074;-65
2023/09/29 05:44:01;;;;;;;12.38;7.55;;;;;;;;;;7367258;19;20032;-69
2023/09/29 05:46:26;;;;;;;13.10;7.45;;;;;;;;;;7365594;19;20006;-64
2023/09/29 05:48:51;;;;;;;11.43;7.75;;;;;;;;;;7359941;19;20046;-64
2023/09/29 05:51:17;;;;;;;13.95;7.97;;;;;;;;;;7389258;19;20003;-64
2023/09/29 05:53:42;;;;;;;14.50;8.77;;;;;;;;;;7370371;19;20715;-63
2023/09/29 05:56:13;;;;;;;15.05;7.60;;;;;;;;;;7372838;19;20015;-63
2023/09/29 05:58:38;;;;;;;25.55;17.58;;;;;;;;;;7376444;19;20093;-65
2023/09/29 06:01:11;;;;;;;13.32;8.98;;;;;;;;;;7375719;19;20010;-63
2023/09/29 06:03:37;;;;;;;13.13;8.88;;;;;;;;;;7374930;19;19998;-65
2023/09/29 06:06:04;;;;;;;15.98;8.00;;;;;;;;;;7396503;19;20017;-62
2023/09/29 06:08:29;;;;;;;14.27;8.60;;;;;;;;;;7372325;19;20384;-64
2023/09/29 06:10:54;;;;;;;11.32;7.93;;;;;;;;;;7373899;19;20008;-64
2023/09/29 06:13:20;;;;;;;12.45;8.13;;;;;;;;;;7373286;19;20342;-65
2023/09/29 06:15:45;;;;;;;13.73;8.38;;;;;;;;;;7370760;19;19994;-63
2023/09/29 06:18:11;;;;;;;15.70;8.38;;;;;;;;;;7395146;19;20026;-67
2023/09/29 06:20:37;;;;;;;13.95;8.48;;;;;;;;;;7372352;19;20003;-65
2023/09/29 06:23:03;;;;;;;13.52;9.32;;;;;;;;;;7371247;19;20003;-66
2023/09/29 06:25:29;;;;;;;13.00;8.95;;;;;;;;;;7371285;19;20348;-67
2023/09/29 06:27:54;;;;;;;13.85;8.93;;;;;;;;;;7372269;19;20062;-65
2023/09/29 06:30:20;;;;;;;13.63;8.85;;;;;;;;;;7394412;19;20529;-68
2023/09/29 06:32:45;;;;;;;25.02;9.68;;;;;;;;;;7369456;19;20014;-66
2023/09/29 06:35:12;;;;;;;19.35;9.75;;;;;;;;;;7372276;19;20014;-66
2023/09/29 06:37:37;;;;;;;14.25;9.43;;;;;;;;;;7371642;19;20452;-66
2023/09/29 06:40:03;;;;;;;14.82;9.13;;;;;;;;;;7372055;19;20019;-68
2023/09/29 06:42:28;;;;;;;13.38;8.60;;;;;;;;;;7391506;19;20062;-67
2023/09/29 06:44:54;;;;;;;14.70;9.02;;;;;;;;;;7372750;19;20010;-67
2023/09/29 06:47:19;;;;;;;13.63;8.20;;;;;;;;;;7370155;19;20003;-66
2023/09/29 06:49:46;;;;;;;12.55;8.13;;;;;;;;;;7373321;19;20002;-67
2023/09/29 06:52:11;;;;;;;12.18;8.02;;;;;;;;;;7370175;19;20049;-68
2023/09/29 06:54:36;;;;;;;13.38;8.15;;;;;;;;;;7372345;19;20631;-69
2023/09/29 06:57:02;;;;;;;16.17;8.13;;;;;;;;;;7393375;19;20019;-66
2023/09/29 06:59:27;;;;;;;11.48;7.55;;;;;;;;;;7371803;19;20006;-67
2023/09/29 07:01:54;;;;;;;13.50;7.68;;;;;;;;;;7369270;19;19999;-67
2023/09/29 07:04:20;;;;;;;12.70;8.02;;;;;;;;;;7369869;19;20405;-67
2023/09/29 07:06:45;;;;;;;11.38;7.45;;;;;;;;;;7371967;19;20002;-68
2023/09/29 07:09:12;;;;;;;12.02;7.70;;;;;;;;;;7393801;19;19995;-67
2023/09/29 07:11:40;;;;;;;11.68;7.63;;;;;;;;;;7371022;19;20006;-67
2023/09/29 07:14:06;;;;;;;10.90;7.38;;;;;;;;;;7370411;19;20021;-67
2023/09/29 07:16:32;;;;;;;11.73;7.93;;;;;;;;;;7370166;19;20577;-67
2023/09/29 07:18:57;;;;;;;12.15;7.18;;;;;;;;;;7370699;19;20003;-66
2023/09/29 07:21:23;;;;;;;9.98;7.00;;;;;;;;;;7393805;19;19998;-66
2023/09/29 07:23:48;;;;;;;11.52;7.45;;;;;;;;;;7368408;19;20078;-66
2023/09/29 07:26:13;;;;;;;11.30;7.22;;;;;;;;;;7371282;19;20010;-68
2023/09/29 07:28:40;;;;;;;10.35;7.38;;;;;;;;;;7371494;19;20085;-66
2023/09/29 07:31:05;;;;;;;13.23;8.10;;;;;;;;;;7371803;19;20006;-69
2023/09/29 07:33:30;;;;;;;12.00;8.52;;;;;;;;;;7383342;19;20005;-67
2023/09/29 07:35:56;;;;;;;10.20;7.75;;;;;;;;;;7380283;19;20019;-67
2023/09/29 07:38:21;;;;;;;12.70;7.70;;;;;;;;;;7370075;19;20085;-66
2023/09/29 07:40:47;;;;;;;11.50;7.68;;;;;;;;;;7371330;19;20505;-67
2023/09/29 07:43:13;;;;;;;13.40;7.47;;;;;;;;;;7368186;19;20015;-67
2023/09/29 07:45:39;;;;;;;11.65;7.38;;;;;;;;;;7370401;19;19994;-67
2023/09/29 07:48:05;;;;;;;11.48;6.57;;;;;;;;;;7392241;19;20018;-67
2023/09/29 07:50:30;;;;;;;10.93;7.30;;;;;;;;;;7368673;19;20493;-67
2023/09/29 07:52:55;;;;;;;11.95;7.50;;;;;;;;;;7367799;19;20014;-67
2023/09/29 07:55:21;;;;;;;8.93;6.25;;;;;;;;;;7370487;19;20035;-67
2023/09/29 07:57:46;;;;;;;8.90;6.15;;;;;;;;;;7369908;19;20006;-68
2023/09/29 08:00:14;;;;;;;12.80;6.20;;;;;;;;;;7391741;19;20022;-67
2023/09/29 08:02:39;;;;;;;9.15;5.68;;;;;;;;;;7366541;19;20419;-67
2023/09/29 08:05:08;;;;;;;10.88;6.18;;;;;;;;;;7369551;19;20010;-66
2023/09/29 08:07:34;;;;;;;10.32;6.20;;;;;;;;;;7369154;19;20019;-66
2023/09/29 08:09:59;;;;;;;11.48;6.05;;;;;;;;;;7368830;19;20007;-66
2023/09/29 08:12:25;;;;;;;9.68;6.20;;;;;;;;;;7390350;19;20483;-67
2023/09/29 08:14:50;;;;;;;10.73;5.93;;;;;;;;;;7369035;19;20041;-66
2023/09/29 08:17:18;;;;;;;13.77;6.00;;;;;;;;;;7369086;19;20013;-66
2023/09/29 08:19:43;;;;;;;9.90;5.97;;;;;;;;;;7368889;19;20009;-68
2023/09/29 08:22:09;;;;;;;10.00;5.40;;;;;;;;;;7367476;19;20018;-67
2023/09/29 08:24:34;;;;;;;8.85;5.40;;;;;;;;;;7368239;19;20469;-67
2023/09/29 08:27:02;;;;;;;10.02;5.72;;;;;;;;;;7391322;19;20006;-68
2023/09/29 08:29:29;;;;;;;9.65;5.70;;;;;;;;;;7368227;19;20007;-68
2023/09/29 08:31:55;;;;;;;8.93;5.05;;;;;;;;;;7367685;19;20011;-69
2023/09/29 08:34:20;;;;;;;13.13;5.55;;;;;;;;;;7367095;19;20070;-68
2023/09/29 08:36:45;;;;;;;9.23;5.60;;;;;;;;;;7369379;19;20006;-68
2023/09/29 08:39:11;;;;;;;9.48;4.68;;;;;;;;;;7390655;19;20009;-68
2023/09/29 08:41:42;;;;;;;10.18;5.00;;;;;;;;;;7368616;19;20002;-68
2023/09/29 08:44:10;;;;;;;7.88;4.70;;;;;;;;;;7368382;19;20505;-67
2023/09/29 08:46:39;;;;;;;8.00;4.60;;;;;;;;;;7368490;19;20027;-67
2023/09/29 08:49:06;;;;;;;10.80;5.05;;;;;;;;;;7367362;19;20002;-68
2023/09/29 08:51:33;;;;;;;8.18;4.57;;;;;;;;;;7375003;19;20016;-66
2023/09/29 08:54:00;;;;;;;7.20;4.40;;;;;;;;;;7387915;19;19999;-68
2023/09/29 08:56:26;;;;;;;10.10;5.15;;;;;;;;;;7367577;19;20410;-68
2023/09/29 08:58:51;;;;;;;9.70;5.15;;;;;;;;;;7368084;19;20021;-68
2023/09/29 09:01:16;;;;;;;7.18;4.65;;;;;;;;;;7369141;19;20015;-67
2023/09/29 09:03:42;;;;;;;9.63;5.13;;;;;;;;;;7366174;19;20079;-67
2023/09/29 09:06:24;;;;;;;8.25;4.80;;;;;;;;;;7390051;19;20007;-68
2023/09/29 09:08:51;;;;;;;7.80;4.15;;;;;;;;;;7367921;19;20002;-65
2023/09/29 09:11:17;;;;;;;11.02;4.95;;;;;;;;;;7367475;19;20413;-67
2023/09/29 09:13:42;;;;;;;9.30;4.95;;;;;;;;;;7366126;19;20002;-68
2023/09/29 09:16:07;;;;;;;6.97;4.38;;;;;;;;;;7367395;19;20010;-68
2023/09/29 09:18:33;;;;;;;9.80;4.70;;;;;;;;;;7369550;19;20081;-69
2023/09/29 09:20:58;;;;;;;11.90;4.65;;;;;;;;;;7391830;19;20005;-67
2023/09/29 09:23:23;;;;;;;7.82;4.43;;;;;;;;;;7369382;19;20010;-68
2023/09/29 09:25:49;;;;;;;10.55;4.95;;;;;;;;;;7365197;19;20088;-68
2023/09/29 09:28:16;;;;;;;8.50;5.00;;;;;;;;;;7365836;19;20013;-68
2023/09/29 09:30:42;;;;;;;8.60;4.65;;;;;;;;;;7367571;19;20396;-68
2023/09/29 09:33:23;;;;;;;7.85;4.63;;;;;;;;;;7386776;19;19999;-68
2023/09/29 09:35:51;;;;;;;10.18;4.65;;;;;;;;;;7367316;19;20006;-68
2023/09/29 09:38:17;;;;;;;9.00;4.45;;;;;;;;;;7366770;19;20007;-68
2023/09/29 09:40:47;;;;;;;10.73;5.07;;;;;;;;;;7366767;19;20009;-68
2023/09/29 09:43:13;;;;;;;11.07;4.60;;;;;;;;;;7364625;19;20066;-68
2023/09/29 09:45:40;;;;;;;7.68;4.28;;;;;;;;;;7366618;19;20010;-67
2023/09/29 09:48:10;;;;;;;7.80;4.22;;;;;;;;;;7389516;19;19998;-67
2023/09/29 09:50:40;;;;;;;10.07;4.80;;;;;;;;;;7366758;19;20006;-68
2023/09/29 09:53:09;;;;;;;7.97;4.72;;;;;;;;;;7365990;19;20355;-68
2023/09/29 09:56:06;;;;;;;13.00;5.38;;;;;;;;;;7368229;19;20014;-68
2023/09/29 09:58:32;;;;;;;7.68;4.95;;;;;;;;;;7367855;19;20086;-69
2023/09/29 10:00:57;;;;;;;10.57;5.20;;;;;;;;;;7366680;19;20031;-67
2023/09/29 10:03:27;;;;;;;9.57;5.05;;;;;;;;;;7384883;19;19999;-67
2023/09/29 10:05:55;;;;;;;9.55;4.82;;;;;;;;;;7365101;19;20007;-67
2023/09/29 10:08:30;;;;;;;9.27;4.35;;;;;;;;;;7364994;19;20350;-68
2023/09/29 10:11:13;;;;;;;9.13;4.15;;;;;;;;;;7363079;19;20007;-68
2023/09/29 10:13:41;;;;;;;7.78;4.15;;;;;;;;;;7365911;19;20703;-68
2023/09/29 10:16:06;;;;;;;6.78;4.43;;;;;;;;;;7366146;19;20007;-67
2023/09/29 10:18:33;;;;;;;7.03;4.10;;;;;;;;;;7371956;19;20427;-68
2023/09/29 10:21:09;;;;;;;6.75;4.13;;;;;;;;;;7387010;19;20006;-67
2023/09/29 10:23:45;;;;;;;8.13;4.22;;;;;;;;;;7364838;19;20011;-68
2023/09/29 10:26:11;;;;;;;9.95;4.22;;;;;;;;;;7366298;19;20010;-67
2023/09/29 10:28:39;;;;;;;6.85;3.55;;;;;;;;;;7366862;19;20014;-67
2023/09/29 10:31:15;;;;;;;7.43;3.53;;;;;;;;;;7365938;19;20070;-68
2023/09/29 10:33:53;;;;;;;12.88;4.30;;;;;;;;;;7364251;19;20699;-68
2023/09/29 10:36:27;;;;;;;8.05;4.05;;;;;;;;;;7387348;19;20026;-68
2023/09/29 10:38:59;;;;;;;6.85;3.50;;;;;;;;;;7368121;19;20070;-68
2023/09/29 10:41:25;;;;;;;6.53;3.40;;;;;;;;;;7372743;19;20003;-68
2023/09/29 10:43:51;;;;;;;6.60;3.88;;;;;;;;;;7372501;19;20006;-67
2023/09/29 10:46:20;;;;;;;7.43;3.75;;;;;;;;;;7370758;19;20089;-67
2023/09/29 10:48:49;;;;;;;6.53;3.28;;;;;;;;;;7371030;19;20028;-65
2023/09/29 10:51:25;;;;;;;7.67;3.90;;;;;;;;;;7390932;19;20010;-67
2023/09/29 10:53:52;;;;;;;8.70;3.38;;;;;;;;;;7368623;19;20013;-66
2023/09/29 10:56:19;;;;;;;7.32;3.10;;;;;;;;;;7368657;19;20039;-67
2023/09/29 10:58:45;;;;;;;6.55;3.30;;;;;;;;;;7371511;19;20469;-69
2023/09/29 11:01:11;;;;;;;6.53;3.10;;;;;;;;;;7369977;19;20011;-68
2023/09/29 11:03:37;;;;;;;5.00;2.45;;;;;;;;;;7369986;19;19994;-69
2023/09/29 11:06:08;;;;;;;5.95;2.80;;;;;;;;;;7392983;19;20366;-67
2023/09/29 11:08:38;;;;;;;5.72;2.95;;;;;;;;;;7371005;19;20026;-67
2023/09/29 11:11:06;;;;;;;5.30;2.90;;;;;;;;;;7371819;19;20014;-67
2023/09/29 11:13:32;;;;;;;5.03;2.80;;;;;;;;;;7368970;19;20425;-68
2023/09/29 11:15:59;;;;;;;6.07;3.10;;;;;;;;;;7370605;19;20018;-66
2023/09/29 11:18:34;;;;;;;6.88;2.80;;;;;;;;;;7390464;19;20096;-67
2023/09/29 11:21:08;;;;;;;5.32;2.85;;;;;;;;;;7374962;19;20484;-67
2023/09/29 11:23:47;;;;;;;6.13;3.13;;;;;;;;;;7370609;19;20010;-67
2023/09/29 11:26:14;;;;;;;5.35;2.80;;;;;;;;;;7370900;19;20372;-67
2023/09/29 11:28:44;;;;;;;5.20;2.85;;;;;;;;;;7371952;19;20318;-67
2023/09/29 11:31:12;;;;;;;6.82;2.80;;;;;;;;;;7376057;19;20493;-67
2023/09/29 11:33:41;;;;;;;5.38;2.70;;;;;;;;;;7371770;19;20484;-68
2023/09/29 11:36:21;;;;;;;5.70;2.60;;;;;;;;;;7394318;19;20023;-67
2023/09/29 11:38:47;;;;;;;5.85;2.65;;;;;;;;;;7370534;19;20674;-67
2023/09/29 11:41:15;;;;;;;4.60;2.42;;;;;;;;;;7371161;19;20014;-67
2023/09/29 11:43:42;;;;;;;6.45;3.08;;;;;;;;;;7368639;19;20009;-67
2023/09/29 11:46:07;;;;;;;5.20;2.58;;;;;;;;;;7369679;19;20131;-67
2023/09/29 11:48:33;;;;;;;2.33;1.73;;;;;;;;;;7369884;19;20035;-67
2023/09/29 11:50:58;;;;;;;8.80;3.00;;;;;;;;;;7390119;19;20035;-67
2023/09/29 11:53:24;;;;;;;4.13;2.47;;;;;;;;;;7367392;19;20031;-67
2023/09/29 11:55:49;;;;;;;4.22;2.42;;;;;;;;;;7371032;19;20010;-66
2023/09/29 11:58:15;;;;;;;6.03;2.67;;;;;;;;;;7370945;19;20380;-66
2023/09/29 12:00:41;;;;;;;7.07;2.47;;;;;;;;;;7369443;19;20556;-67
2023/09/29 12:03:07;;;;;;;4.70;2.35;;;;;;;;;;7390380;19;20035;-67
2023/09/29 12:05:33;;;;;;;4.28;2.47;;;;;;;;;;7370043;19;20010;-67
2023/09/29 12:07:59;;;;;;;8.32;2.58;;;;;;;;;;7368677;19;20831;-67
2023/09/29 12:10:24;;;;;;;5.72;2.60;;;;;;;;;;7369463;19;20074;-66
2023/09/29 12:12:50;;;;;;;7.30;2.60;;;;;;;;;;7369465;19;20075;-67
2023/09/29 12:15:17;;;;;;;4.70;2.28;;;;;;;;;;7391588;19;19999;-66
2023/09/29 12:17:43;;;;;;;6.25;2.42;;;;;;;;;;7369222;19;20013;-68
2023/09/29 12:20:13;;;;;;;4.10;2.47;;;;;;;;;;7369536;19;20070;-68
2023/09/29 12:22:38;;;;;;;6.63;2.50;;;;;;;;;;7368548;19;20010;-66
2023/09/29 12:25:04;;;;;;;4.78;2.47;;;;;;;;;;7368951;19;20011;-67
2023/09/29 12:27:29;;;;;;;8.27;2.90;;;;;;;;;;7389065;19;20016;-67
2023/09/29 12:29:55;;;;;;;6.50;2.85;;;;;;;;;;7369246;19;20376;-67
2023/09/29 12:32:21;;;;;;;4.53;2.67;;;;;;;;;;7365883;19;20006;-67
2023/09/29 12:34:46;;;;;;;6.47;2.28;;;;;;;;;;7367652;19;20138;-68
2023/09/29 12:37:11;;;;;;;8.75;2.63;;;;;;;;;;7362194;19;20545;-67
2023/09/29 12:39:39;;;;;;;4.03;2.10;;;;;;;;;;7364099;19;20007;-68
2023/09/29 12:42:04;;;;;;;5.80;1.95;;;;;;;;;;7384677;19;20035;-63
2023/09/29 12:44:30;;;;;;;6.80;2.65;;;;;;;;;;7362469;19;19998;-66
2023/09/29 12:46:55;;;;;;;6.68;2.88;;;;;;;;;;7360962;19;20367;-65
2023/09/29 12:49:20;;;;;;;8.75;3.03;;;;;;;;;;7364433;19;20010;-66
2023/09/29 12:51:46;;;;;;;6.80;2.53;;;;;;;;;;7364870;19;19995;-67
2023/09/29 12:54:11;;;;;;;8.05;2.95;;;;;;;;;;7384592;19;20037;-65
2023/09/29 12:56:37;;;;;;;10.00;3.33;;;;;;;;;;7364172;19;20011;-66
2023/09/29 12:59:02;;;;;;;7.75;3.50;;;;;;;;;;7364260;19;20005;-65
2023/09/29 13:01:28;;;;;;;9.60;3.97;;;;;;;;;;7362492;19;20016;-66
2023/09/29 13:03:53;;;;;;;10.80;4.38;;;;;;;;;;7362820;19;20023;-65
2023/09/29 13:06:18;;;;;;;9.88;3.75;;;;;;;;;;7386770;19;20003;-67
2023/09/29 13:08:44;;;;;;;10.02;4.05;;;;;;;;;;7364568;19;20010;-66
2023/09/29 13:11:16;;;;;;;11.95;3.70;;;;;;;;;;7367363;19;20012;-66
2023/09/29 13:13:42;;;;;;;13.35;4.80;;;;;;;;;;7366719;19;20007;-66
2023/09/29 13:16:09;;;;;;;12.38;4.72;;;;;;;;;;7365350;19;20082;-65
2023/09/29 13:18:35;;;;;;;13.88;5.28;;;;;;;;;;7366634;19;19998;-66
2023/09/29 13:21:00;;;;;;;13.88;5.18;;;;;;;;;;7386300;19;20052;-65
2023/09/29 13:23:25;;;;;;;16.67;5.40;;;;;;;;;;7382423;19;20002;-65
2023/09/29 13:25:51;;;;;;;13.73;5.45;;;;;;;;;;7389350;19;20002;-65
2023/09/29 13:28:17;;;;;;;16.42;6.72;;;;;;;;;;7384675;19;20058;-68
2023/09/29 13:30:42;;;;;;;23.40;8.75;;;;;;;;;;7365213;19;19998;-65
2023/09/29 13:33:07;;;;;;;25.95;9.60;;;;;;;;;;7384234;19;20002;-66
2023/09/29 13:35:32;;;;;;;24.70;8.65;;;;;;;;;;7364150;19;20003;-65
2023/09/29 13:37:58;;;;;;;26.05;10.40;;;;;;;;;;7363527;19;20003;-66
2023/09/29 13:40:24;;;;;;;31.38;10.35;;;;;;;;;;7364606;19;20348;-66
2023/09/29 13:42:49;;;;;;;29.20;10.82;;;;;;;;;;7365173;19;19994;-65
2023/09/29 13:45:17;;;;;;;22.40;8.65;;;;;;;;;;7388328;19;20444;-65
2023/09/29 13:47:43;;;;;;;25.50;9.45;;;;;;;;;;7365139;19;20086;-66
2023/09/29 13:50:11;;;;;;;27.92;9.82;;;;;;;;;;7366334;19;19995;-67
2023/09/29 13:52:36;;;;;;;29.80;10.63;;;;;;;;;;7362483;19;20063;-65
2023/09/29 13:55:04;;;;;;;23.70;8.88;;;;;;;;;;7364793;19;20010;-66
2023/09/29 13:57:30;;;;;;;29.33;10.98;;;;;;;;;;7388135;19;20074;-66
2023/09/29 13:59:56;;;;;;;28.13;11.18;;;;;;;;;;7364165;19;20040;-66
2023/09/29 14:02:21;;;;;;;29.42;10.82;;;;;;;;;;7367513;19;20082;-66
2023/09/29 14:04:46;;;;;;;29.90;11.43;;;;;;;;;;7368235;19;20006;-65
2023/09/29 14:07:12;;;;;;;28.08;10.18;;;;;;;;;;7365489;19;20011;-65
2023/09/29 14:09:38;;;;;;;30.52;10.38;;;;;;;;;;7366137;19;20014;-67
2023/09/29 14:12:05;;;;;;;29.95;10.95;;;;;;;;;;7389206;19;20017;-67
2023/09/29 14:14:34;;;;;;;32.58;12.38;;;;;;;;;;7374743;19;20031;-65
2023/09/29 14:16:59;;;;;;;30.23;11.52;;;;;;;;;;7374604;19;20520;-67
2023/09/29 14:19:25;;;;;;;27.90;10.68;;;;;;;;;;7372802;19;20002;-66
2023/09/29 14:21:51;;;;;;;33.65;12.32;;;;;;;;;;7373211;19;20365;-65
2023/09/29 14:24:17;;;;;;;27.90;11.23;;;;;;;;;;7392944;19;19999;-66
2023/09/29 14:26:44;;;;;;;30.67;10.75;;;;;;;;;;7371330;19;20006;-66
2023/09/29 14:29:09;;;;;;;27.58;11.00;;;;;;;;;;7372215;19;20005;-67